createdAt,value
2023-01-31T00:00:03.471Z,5.50
2023-01-31T00:02:52.864Z,6.07
2023-01-31T00:05:21.491Z,6.20
2023-01-31T00:07:49.464Z,8.53
2023-01-31T00:10:17.706Z,6.77
2023-01-31T00:12:45.498Z,6.67
2023-01-31T00:15:16.619Z,6.37
2023-01-31T00:17:44.788Z,6.73
2023-01-31T00:20:13.017Z,7.30
2023-01-31T00:22:40.741Z,8.53
2023-01-31T00:25:09.193Z,7.30
2023-01-31T00:27:37.292Z,7.60
2023-01-31T00:30:06.197Z,7.33
2023-01-31T00:32:34.396Z,6.60
2023-01-31T00:35:02.992Z,5.63
2023-01-31T00:37:30.835Z,6.27
2023-01-31T00:39:58.887Z,5.97
2023-01-31T00:42:26.592Z,5.80
2023-01-31T00:44:54.589Z,5.77
2023-01-31T00:47:22.359Z,5.50
2023-01-31T00:49:52.775Z,5.23
2023-01-31T00:52:20.670Z,5.70
2023-01-31T00:54:48.855Z,6.73
2023-01-31T00:57:16.834Z,6.33
2023-01-31T00:59:46.089Z,5.77
2023-01-31T01:02:13.815Z,5.63
2023-01-31T01:04:41.854Z,6.60
2023-01-31T01:07:09.542Z,6.60
2023-01-31T01:09:37.616Z,5.40
2023-01-31T01:12:05.665Z,5.37
2023-01-31T01:14:34.080Z,5.83
2023-01-31T01:17:02.449Z,5.93
2023-01-31T01:19:30.493Z,5.40
2023-01-31T01:21:58.590Z,7.53
2023-01-31T01:24:27.438Z,6.03
2023-01-31T01:26:55.357Z,6.80
2023-01-31T01:29:23.304Z,6.53
2023-01-31T01:31:51.275Z,8.03
2023-01-31T01:34:20.102Z,7.17
2023-01-31T01:36:48.262Z,5.60
2023-01-31T01:39:18.282Z,5.30
2023-01-31T01:41:47.233Z,6.90
2023-01-31T01:44:42.917Z,6.53
2023-01-31T01:47:19.300Z,6.10
2023-01-31T01:49:59.995Z,5.53
2023-01-31T01:52:29.949Z,5.93
2023-01-31T01:55:00.781Z,5.67
2023-01-31T01:57:40.441Z,5.73
2023-01-31T02:00:09.141Z,5.83
2023-01-31T02:02:44.210Z,6.00
2023-01-31T02:05:17.272Z,5.23
2023-01-31T02:07:45.211Z,6.13
2023-01-31T02:10:16.857Z,5.77
2023-01-31T02:12:44.669Z,4.93
2023-01-31T02:15:12.814Z,5.23
2023-01-31T02:17:40.792Z,5.23
2023-01-31T02:20:35.640Z,5.23
2023-01-31T02:23:03.365Z,5.33
2023-01-31T02:25:37.795Z,5.47
2023-01-31T02:28:24.497Z,5.13
2023-01-31T02:31:04.566Z,5.17
2023-01-31T02:33:43.691Z,4.87
2023-01-31T02:36:20.220Z,5.27
2023-01-31T02:39:01.951Z,4.93
2023-01-31T02:41:37.876Z,5.10
2023-01-31T02:44:30.033Z,5.20
2023-01-31T02:47:15.828Z,5.07
2023-01-31T02:50:04.036Z,5.23
2023-01-31T02:52:41.395Z,4.93
2023-01-31T02:55:37.475Z,5.50
2023-01-31T02:58:09.795Z,4.93
2023-01-31T03:00:41.007Z,4.33
2023-01-31T03:03:18.378Z,4.83
2023-01-31T03:05:46.151Z,5.23
2023-01-31T03:08:16.447Z,4.73
2023-01-31T03:11:05.676Z,4.87
2023-01-31T03:13:39.132Z,4.20
2023-01-31T03:16:25.440Z,4.77
2023-01-31T03:18:53.522Z,4.63
2023-01-31T03:21:28.004Z,5.07
2023-01-31T03:23:58.133Z,5.13
2023-01-31T03:26:27.354Z,3.80
2023-01-31T03:28:57.422Z,4.53
2023-01-31T03:31:35.725Z,4.30
2023-01-31T03:34:11.535Z,5.20
2023-01-31T03:36:40.041Z,4.20
2023-01-31T03:39:29.237Z,4.37
2023-01-31T03:42:07.914Z,5.00
2023-01-31T03:44:36.272Z,4.77
2023-01-31T03:47:16.043Z,4.50
2023-01-31T03:49:45.607Z,4.53
2023-01-31T03:52:23.410Z,4.73
2023-01-31T03:55:00.337Z,5.67
2023-01-31T03:57:36.590Z,9.87
2023-01-31T04:00:07.922Z,9.17
2023-01-31T04:02:43.908Z,9.63
2023-01-31T04:05:19.292Z,5.63
2023-01-31T04:07:49.418Z,6.77
2023-01-31T04:10:23.528Z,6.97
2023-01-31T04:12:51.257Z,10.00
2023-01-31T04:15:19.559Z,9.97
2023-01-31T04:17:47.549Z,7.00
2023-01-31T04:20:16.379Z,13.63
2023-01-31T04:22:44.280Z,26.73
2023-01-31T04:25:12.614Z,29.90
2023-01-31T04:27:40.481Z,40.50
2023-01-31T04:30:08.855Z,29.53
2023-01-31T04:32:36.702Z,30.10
2023-01-31T04:35:04.850Z,11.27
2023-01-31T04:37:33.016Z,12.87
2023-01-31T04:40:01.014Z,12.77
2023-01-31T04:42:28.838Z,12.50
2023-01-31T04:44:57.006Z,11.40
2023-01-31T04:47:24.746Z,12.80
2023-01-31T04:49:52.798Z,11.30
2023-01-31T04:52:20.534Z,9.97
2023-01-31T04:54:48.565Z,13.23
2023-01-31T04:57:16.375Z,12.73
2023-01-31T04:59:44.333Z,9.70
2023-01-31T05:02:15.239Z,13.27
2023-01-31T05:04:43.347Z,10.37
2023-01-31T05:07:11.087Z,8.40
2023-01-31T05:09:39.458Z,8.73
2023-01-31T05:12:08.132Z,8.30
2023-01-31T05:14:36.295Z,9.13
2023-01-31T05:17:04.529Z,12.13
2023-01-31T05:19:32.656Z,13.53
2023-01-31T05:22:00.533Z,7.70
2023-01-31T05:24:31.304Z,11.10
2023-01-31T05:27:01.801Z,7.17
2023-01-31T05:29:32.340Z,7.90
2023-01-31T05:32:01.324Z,12.20
2023-01-31T05:34:32.929Z,6.93
2023-01-31T05:37:01.089Z,7.30
2023-01-31T05:39:29.499Z,6.67
2023-01-31T05:41:57.309Z,6.63
2023-01-31T05:44:25.305Z,6.73
2023-01-31T05:46:53.097Z,5.27
2023-01-31T05:49:21.138Z,6.33
2023-01-31T05:51:48.895Z,7.73
2023-01-31T05:54:17.035Z,6.60
2023-01-31T05:56:44.719Z,5.53
2023-01-31T05:59:12.678Z,5.30
2023-01-31T06:01:40.528Z,5.97
2023-01-31T06:04:08.633Z,6.13
2023-01-31T06:06:36.413Z,5.60
2023-01-31T06:09:04.496Z,5.63
2023-01-31T06:11:33.210Z,6.20
2023-01-31T06:14:01.472Z,5.57
2023-01-31T06:16:29.172Z,5.10
2023-01-31T06:18:57.686Z,5.03
2023-01-31T06:21:25.512Z,5.87
2023-01-31T06:23:53.665Z,5.23
2023-01-31T06:26:21.696Z,5.00
2023-01-31T06:28:49.858Z,5.17
2023-01-31T06:31:17.806Z,5.57
2023-01-31T06:33:47.978Z,6.20
2023-01-31T06:36:19.580Z,4.47
2023-01-31T06:38:52.040Z,6.50
2023-01-31T06:41:20.479Z,4.70
2023-01-31T06:43:51.433Z,5.30
2023-01-31T06:46:19.156Z,4.47
2023-01-31T06:48:48.727Z,5.37
2023-01-31T06:51:17.008Z,5.20
2023-01-31T06:53:45.188Z,6.07
2023-01-31T06:56:13.129Z,4.77
2023-01-31T06:58:41.886Z,6.97
2023-01-31T07:01:14.322Z,5.80
2023-01-31T07:03:42.689Z,7.80
2023-01-31T07:06:11.090Z,9.93
2023-01-31T07:08:39.227Z,11.83
2023-01-31T07:11:07.373Z,14.33
2023-01-31T07:13:35.411Z,5.63
2023-01-31T07:16:03.222Z,9.23
2023-01-31T07:18:31.476Z,6.87
2023-01-31T07:20:59.356Z,5.10
2023-01-31T07:23:27.365Z,7.90
2023-01-31T07:25:55.213Z,13.97
2023-01-31T07:28:23.277Z,9.00
2023-01-31T07:30:52.073Z,5.97
2023-01-31T07:33:20.396Z,8.27
2023-01-31T07:35:48.217Z,7.70
2023-01-31T07:38:16.316Z,8.97
2023-01-31T07:40:44.077Z,5.30
2023-01-31T07:43:12.119Z,6.10
2023-01-31T07:45:43.006Z,5.10
2023-01-31T07:48:11.267Z,5.10
2023-01-31T07:50:39.368Z,4.53
2023-01-31T07:53:07.778Z,5.47
2023-01-31T07:55:35.644Z,4.60
2023-01-31T07:58:03.657Z,4.33
2023-01-31T08:00:50.048Z,5.27
2023-01-31T08:03:34.726Z,6.77
2023-01-31T08:06:12.704Z,6.43
2023-01-31T08:08:42.950Z,5.20
2023-01-31T08:11:11.146Z,4.77
2023-01-31T08:13:39.895Z,4.17
2023-01-31T08:16:11.391Z,3.63
2023-01-31T08:18:39.757Z,4.97
2023-01-31T08:21:08.137Z,4.73
2023-01-31T08:23:38.302Z,5.03
2023-01-31T08:26:11.011Z,4.80
2023-01-31T08:28:39.675Z,4.47
2023-01-31T08:31:09.469Z,5.00
2023-01-31T08:33:38.808Z,4.17
2023-01-31T08:36:11.100Z,4.77
2023-01-31T08:38:39.369Z,4.80
2023-01-31T08:41:07.906Z,5.47
2023-01-31T08:43:53.723Z,4.23
2023-01-31T08:46:23.017Z,5.70
2023-01-31T08:48:53.101Z,5.00
2023-01-31T08:51:21.579Z,4.90
2023-01-31T08:53:49.987Z,5.73
2023-01-31T08:56:18.120Z,4.67
2023-01-31T08:58:47.490Z,4.20
2023-01-31T09:01:17.040Z,5.10
2023-01-31T09:03:45.942Z,7.13
2023-01-31T09:06:18.279Z,4.67
2023-01-31T09:08:46.844Z,5.73
2023-01-31T09:11:19.875Z,4.93
2023-01-31T09:13:51.798Z,5.97
2023-01-31T09:16:21.629Z,4.37
2023-01-31T09:18:50.256Z,4.73
2023-01-31T09:21:19.307Z,3.40
2023-01-31T09:23:48.683Z,4.93
2023-01-31T09:26:17.425Z,4.00
2023-01-31T09:28:45.775Z,4.47
2023-01-31T09:31:16.183Z,6.57
2023-01-31T09:33:44.870Z,4.23
2023-01-31T09:36:18.209Z,5.43
2023-01-31T09:38:46.620Z,4.50
2023-01-31T09:41:36.468Z,4.00
2023-01-31T09:44:11.632Z,3.67
2023-01-31T09:46:51.528Z,5.43
2023-01-31T09:49:23.609Z,4.97
2023-01-31T09:51:55.142Z,5.17
2023-01-31T09:54:30.834Z,4.70
2023-01-31T09:57:01.903Z,4.57
2023-01-31T09:59:41.383Z,6.23
2023-01-31T10:02:18.382Z,5.20
2023-01-31T10:05:11.063Z,3.10
2023-01-31T10:08:05.259Z,5.80
2023-01-31T10:10:45.595Z,4.90
2023-01-31T10:13:26.078Z,4.50
2023-01-31T10:16:01.195Z,7.60
2023-01-31T10:18:33.355Z,7.53
2023-01-31T10:21:07.315Z,7.27
2023-01-31T10:23:39.698Z,10.40
2023-01-31T10:26:16.650Z,12.47
2023-01-31T10:28:44.763Z,9.97
2023-01-31T10:31:13.764Z,4.97
2023-01-31T10:33:48.424Z,6.07
2023-01-31T10:36:25.622Z,10.73
2023-01-31T10:38:53.679Z,20.70
2023-01-31T10:42:05.838Z,26.70
2023-01-31T10:45:17.475Z,9.47
2023-01-31T10:48:01.764Z,9.50
2023-01-31T10:50:42.910Z,15.07
2023-01-31T10:53:45.128Z,4.13
2023-01-31T10:56:20.281Z,11.70
2023-01-31T10:58:50.689Z,15.20
2023-01-31T11:01:21.668Z,5.90
2023-01-31T11:03:54.527Z,14.23
2023-01-31T11:06:24.246Z,9.67
2023-01-31T11:08:59.350Z,7.87
2023-01-31T11:11:29.584Z,8.43
2023-01-31T11:14:02.204Z,5.00
2023-01-31T11:16:36.958Z,5.07
2023-01-31T11:19:21.271Z,6.53
2023-01-31T11:21:54.629Z,13.23
2023-01-31T11:24:30.968Z,14.83
2023-01-31T11:27:13.584Z,9.80
2023-01-31T11:29:52.002Z,4.23
2023-01-31T11:32:31.193Z,5.23
2023-01-31T11:35:07.308Z,6.33
2023-01-31T11:37:35.826Z,5.17
2023-01-31T11:40:16.804Z,3.47
2023-01-31T11:42:57.429Z,5.50
2023-01-31T11:45:30.820Z,7.67
2023-01-31T11:48:25.296Z,5.97
2023-01-31T11:51:01.725Z,7.80
2023-01-31T11:53:49.027Z,7.40
2023-01-31T11:56:32.058Z,50.17
2023-01-31T11:59:06.360Z,10.00
2023-01-31T12:01:46.168Z,4.80
2023-01-31T12:04:31.357Z,5.80
2023-01-31T12:07:21.804Z,7.63
2023-01-31T12:09:50.537Z,5.97
2023-01-31T12:12:31.906Z,14.80
2023-01-31T12:15:03.478Z,4.17
2023-01-31T12:17:44.938Z,20.60
2023-01-31T12:20:28.431Z,21.77
2023-01-31T12:23:11.800Z,38.53
2023-01-31T12:25:49.486Z,8.80
2023-01-31T12:28:28.162Z,19.83
2023-01-31T12:31:40.431Z,7.13
2023-01-31T12:34:09.767Z,6.67
2023-01-31T12:36:53.899Z,4.83
2023-01-31T12:39:48.549Z,5.30
2023-01-31T12:42:18.296Z,5.70
2023-01-31T12:45:03.718Z,4.57
2023-01-31T12:47:39.828Z,4.90
2023-01-31T12:50:31.398Z,6.10
2023-01-31T12:53:03.572Z,11.37
2023-01-31T12:55:49.804Z,6.77
2023-01-31T12:58:20.352Z,22.07
2023-01-31T13:01:03.300Z,8.80
2023-01-31T13:03:41.898Z,20.30
2023-01-31T13:06:16.952Z,14.50
2023-01-31T13:09:21.754Z,10.10
2023-01-31T13:11:51.070Z,7.23
2023-01-31T13:14:28.242Z,6.17
2023-01-31T13:17:01.419Z,7.17
2023-01-31T13:19:44.689Z,5.27
2023-01-31T13:22:29.904Z,6.23
2023-01-31T13:25:22.801Z,5.93
2023-01-31T13:28:08.996Z,4.97
2023-01-31T13:30:54.660Z,6.00
2023-01-31T13:33:42.248Z,6.00
2023-01-31T13:36:10.761Z,5.47
2023-01-31T13:38:43.823Z,4.13
2023-01-31T13:41:27.496Z,4.10
2023-01-31T13:43:58.702Z,4.90
2023-01-31T13:46:59.955Z,4.60
2023-01-31T13:50:17.813Z,5.03
2023-01-31T13:52:51.397Z,6.30
2023-01-31T13:55:23.308Z,3.93
2023-01-31T13:58:08.354Z,6.20
2023-01-31T14:00:36.588Z,5.57
2023-01-31T14:03:06.846Z,6.43
2023-01-31T14:05:39.103Z,5.13
2023-01-31T14:08:31.444Z,5.30
2023-01-31T14:11:01.079Z,4.70
2023-01-31T14:13:38.178Z,5.40
2023-01-31T14:16:40.339Z,5.37
2023-01-31T14:19:20.222Z,5.80
2023-01-31T14:22:03.657Z,5.37
2023-01-31T14:24:50.833Z,6.40
2023-01-31T14:27:24.985Z,5.73
2023-01-31T14:30:06.633Z,6.27
2023-01-31T14:32:35.624Z,7.13
2023-01-31T14:35:44.750Z,6.03
2023-01-31T14:38:32.358Z,5.90
2023-01-31T14:41:12.694Z,5.73
2023-01-31T14:43:43.837Z,7.03
2023-01-31T14:46:38.961Z,5.90
2023-01-31T14:49:16.371Z,6.47
2023-01-31T14:52:11.922Z,7.03
2023-01-31T14:54:40.468Z,5.90
2023-01-31T14:57:18.757Z,5.80
2023-01-31T15:00:02.500Z,9.00
2023-01-31T15:02:35.050Z,6.90
2023-01-31T15:05:32.680Z,6.00
2023-01-31T15:08:02.056Z,6.17
2023-01-31T15:10:55.596Z,6.10
2023-01-31T15:13:36.008Z,5.77
2023-01-31T15:16:05.735Z,6.83
2023-01-31T15:18:33.997Z,5.93
2023-01-31T15:21:04.878Z,6.37
2023-01-31T15:23:36.157Z,6.47
2023-01-31T15:26:04.930Z,6.30
2023-01-31T15:28:37.731Z,6.93
2023-01-31T15:31:10.324Z,5.93
2023-01-31T15:33:43.456Z,5.87
2023-01-31T15:36:15.015Z,6.17
2023-01-31T15:38:48.372Z,6.30
2023-01-31T15:41:17.201Z,6.43
2023-01-31T15:43:46.425Z,6.83
2023-01-31T15:46:43.899Z,7.20
2023-01-31T15:49:42.532Z,7.00
2023-01-31T15:52:17.800Z,5.70
2023-01-31T15:55:02.673Z,6.30
2023-01-31T15:57:41.645Z,6.13
2023-01-31T16:00:23.394Z,4.93
2023-01-31T16:03:00.732Z,5.53
2023-01-31T16:05:36.634Z,5.60
2023-01-31T16:08:19.734Z,5.63
2023-01-31T16:10:49.466Z,5.63
2023-01-31T16:13:17.978Z,6.10
2023-01-31T16:15:46.155Z,6.90
2023-01-31T16:18:14.507Z,8.40
2023-01-31T16:20:53.908Z,8.40
2023-01-31T16:23:29.301Z,8.50
2023-01-31T16:26:22.882Z,9.07
2023-01-31T16:28:55.607Z,10.07
2023-01-31T16:31:32.714Z,10.33
2023-01-31T16:34:04.601Z,9.63
2023-01-31T16:36:53.164Z,9.10
2023-01-31T16:39:30.236Z,10.00
2023-01-31T16:42:00.078Z,10.70
2023-01-31T16:44:35.278Z,11.47
2023-01-31T16:47:04.616Z,10.40
2023-01-31T16:49:37.746Z,11.20
2023-01-31T16:52:29.801Z,9.20
2023-01-31T16:55:02.206Z,10.20
2023-01-31T16:57:37.513Z,11.00
2023-01-31T17:00:28.293Z,11.87
2023-01-31T17:02:58.631Z,12.70
2023-01-31T17:05:29.283Z,11.60
2023-01-31T17:07:58.373Z,12.37
2023-01-31T17:10:35.352Z,12.90
2023-01-31T17:13:14.702Z,13.10
2023-01-31T17:15:44.003Z,12.80
2023-01-31T17:18:12.943Z,12.50
2023-01-31T17:20:44.518Z,12.30
2023-01-31T17:23:14.014Z,11.70
2023-01-31T17:25:43.398Z,12.50
2023-01-31T17:28:11.642Z,12.57
2023-01-31T17:30:42.282Z,13.07
2023-01-31T17:33:13.893Z,11.37
2023-01-31T17:35:47.656Z,12.53
2023-01-31T17:38:16.639Z,18.90
2023-01-31T17:40:46.333Z,15.43
2023-01-31T17:43:20.961Z,15.63
2023-01-31T17:45:49.451Z,15.27
2023-01-31T17:48:26.192Z,22.90
2023-01-31T17:50:55.796Z,17.07
2023-01-31T17:53:23.771Z,15.57
2023-01-31T17:55:52.270Z,17.33
2023-01-31T17:58:20.179Z,17.77
2023-01-31T18:00:49.419Z,17.57
2023-01-31T18:03:22.535Z,17.53
2023-01-31T18:05:51.307Z,19.80
2023-01-31T18:08:19.630Z,16.83
2023-01-31T18:10:48.077Z,18.13
2023-01-31T18:13:15.956Z,18.43
2023-01-31T18:15:48.775Z,19.13
2023-01-31T18:18:17.031Z,18.77
2023-01-31T18:20:48.167Z,19.10
2023-01-31T18:23:15.944Z,18.27
2023-01-31T18:25:44.479Z,19.37
2023-01-31T18:28:12.401Z,18.07
2023-01-31T18:30:40.780Z,18.67
2023-01-31T18:33:08.717Z,19.60
2023-01-31T18:35:36.916Z,17.50
2023-01-31T18:38:06.997Z,16.83
2023-01-31T18:40:35.312Z,17.77
2023-01-31T18:43:05.095Z,16.47
2023-01-31T18:45:37.985Z,17.53
2023-01-31T18:48:05.935Z,17.40
2023-01-31T18:50:35.162Z,17.60
2023-01-31T18:53:03.257Z,16.53
2023-01-31T18:55:31.769Z,16.83
2023-01-31T18:57:59.573Z,15.73
2023-01-31T19:00:27.811Z,18.03
2023-01-31T19:02:56.125Z,15.43
2023-01-31T19:05:24.641Z,15.83
2023-01-31T19:07:53.069Z,14.83
2023-01-31T19:10:21.403Z,14.60
2023-01-31T19:12:49.212Z,15.80
2023-01-31T19:15:17.514Z,14.37
2023-01-31T19:17:46.530Z,14.57
2023-01-31T19:20:15.474Z,14.03
2023-01-31T19:22:43.310Z,14.90
2023-01-31T19:25:11.614Z,13.73
2023-01-31T19:27:40.721Z,13.77
2023-01-31T19:30:09.707Z,11.97
2023-01-31T19:32:37.573Z,13.53
2023-01-31T19:35:06.212Z,13.83
2023-01-31T19:37:34.925Z,14.67
2023-01-31T19:40:05.560Z,12.33
2023-01-31T19:42:34.922Z,12.70
2023-01-31T19:45:03.977Z,13.73
2023-01-31T19:47:34.613Z,13.17
2023-01-31T19:50:04.603Z,14.60
2023-01-31T19:52:34.167Z,14.50
2023-01-31T19:55:04.099Z,15.57
2023-01-31T19:57:33.144Z,16.13
2023-01-31T20:00:02.747Z,16.03
2023-01-31T20:02:42.618Z,14.73
2023-01-31T20:05:15.696Z,15.37
2023-01-31T20:07:45.915Z,16.07
2023-01-31T20:10:16.194Z,15.77
2023-01-31T20:12:47.200Z,17.37
2023-01-31T20:15:16.728Z,15.77
2023-01-31T20:17:45.251Z,16.73
2023-01-31T20:20:16.246Z,16.33
2023-01-31T20:22:44.919Z,16.60
2023-01-31T20:25:14.358Z,16.13
2023-01-31T20:27:43.909Z,16.27
2023-01-31T20:30:13.943Z,15.87
2023-01-31T20:32:44.057Z,16.43
2023-01-31T20:35:12.853Z,18.10
2023-01-31T20:37:41.518Z,17.87
2023-01-31T20:40:12.126Z,16.83
2023-01-31T20:42:40.912Z,16.73
2023-01-31T20:45:10.356Z,18.40
2023-01-31T20:47:38.946Z,18.63
2023-01-31T20:50:09.096Z,19.30
2023-01-31T20:52:38.213Z,18.23
2023-01-31T20:55:08.620Z,17.00
2023-01-31T20:57:37.612Z,19.03
2023-01-31T21:00:07.562Z,18.60
2023-01-31T21:02:36.786Z,18.60
2023-01-31T21:05:05.923Z,18.10
2023-01-31T21:07:35.195Z,18.83
2023-01-31T21:10:04.251Z,19.10
2023-01-31T21:12:32.713Z,16.97
2023-01-31T21:15:01.909Z,15.17
2023-01-31T21:17:39.638Z,15.37
2023-01-31T21:20:11.018Z,15.50
2023-01-31T21:22:39.025Z,16.20
2023-01-31T21:25:07.419Z,15.17
2023-01-31T21:27:35.569Z,16.40
2023-01-31T21:30:03.752Z,13.27
2023-01-31T21:32:31.795Z,14.63
2023-01-31T21:35:01.127Z,19.50
2023-01-31T21:37:30.112Z,9.23
2023-01-31T21:39:58.233Z,5.43
2023-01-31T21:42:25.951Z,5.37
2023-01-31T21:44:54.179Z,7.13
2023-01-31T21:47:22.774Z,7.00
2023-01-31T21:49:51.454Z,6.43
2023-01-31T21:52:19.286Z,4.50
2023-01-31T21:54:47.397Z,4.93
2023-01-31T21:57:15.102Z,4.83
2023-01-31T21:59:45.655Z,5.40
2023-01-31T22:02:13.618Z,4.13
2023-01-31T22:04:41.764Z,5.77
2023-01-31T22:07:09.765Z,6.33
2023-01-31T22:09:38.060Z,7.00
2023-01-31T22:12:05.967Z,5.13
2023-01-31T22:14:33.961Z,6.37
2023-01-31T22:17:01.728Z,5.97
2023-01-31T22:19:29.648Z,5.17
2023-01-31T22:21:59.198Z,5.23
2023-01-31T22:24:27.031Z,5.67
2023-01-31T22:26:55.106Z,4.53
2023-01-31T22:29:22.965Z,6.30
2023-01-31T22:31:51.426Z,7.20
2023-01-31T22:34:19.413Z,6.87
2023-01-31T22:36:47.600Z,6.27
2023-01-31T22:39:16.191Z,5.23
2023-01-31T22:41:44.842Z,4.47
2023-01-31T22:44:12.691Z,7.10
2023-01-31T22:46:40.743Z,4.30
2023-01-31T22:49:08.518Z,4.20
2023-01-31T22:51:36.654Z,4.40
2023-01-31T22:54:04.445Z,4.93
2023-01-31T22:56:32.905Z,4.70
2023-01-31T22:59:02.440Z,4.97
2023-01-31T23:01:35.229Z,4.37
2023-01-31T23:04:04.478Z,5.97
2023-01-31T23:06:33.006Z,5.10
2023-01-31T23:09:00.747Z,3.93
2023-01-31T23:11:29.016Z,5.63
2023-01-31T23:13:57.510Z,4.40
2023-01-31T23:16:45.440Z,4.50
2023-01-31T23:19:14.045Z,5.03
2023-01-31T23:21:45.670Z,3.70
2023-01-31T23:24:14.891Z,4.00
2023-01-31T23:26:43.693Z,4.87
2023-01-31T23:29:11.706Z,5.20
2023-01-31T23:31:40.169Z,6.00
2023-01-31T23:34:07.965Z,5.53
2023-01-31T23:36:35.950Z,5.20
2023-01-31T23:39:04.681Z,5.93
2023-01-31T23:41:32.498Z,6.47
2023-01-31T23:44:00.558Z,6.07
2023-01-31T23:46:28.571Z,5.67
2023-01-31T23:48:56.722Z,5.03
2023-01-31T23:51:24.539Z,5.97
2023-01-31T23:53:52.524Z,5.40
2023-01-31T23:56:20.304Z,6.30
2023-01-31T23:58:48.436Z,5.37
